createdAt,value
2023-03-12T00:01:07.426Z,96
2023-03-12T00:06:10.826Z,96
2023-03-12T00:11:08.166Z,96
2023-03-12T00:16:07.316Z,96
2023-03-12T00:21:07.458Z,96
2023-03-12T00:26:07.560Z,96
2023-03-12T00:31:07.496Z,96
2023-03-12T00:36:07.488Z,96
2023-03-12T00:41:07.390Z,96
2023-03-12T00:46:07.420Z,96
2023-03-12T00:51:07.720Z,96
2023-03-12T00:56:07.493Z,96
2023-03-12T01:01:07.906Z,96
2023-03-12T01:06:08.031Z,96
2023-03-12T01:11:08.196Z,96
2023-03-12T01:16:07.277Z,96
2023-03-12T01:21:07.756Z,96
2023-03-12T01:26:09.174Z,96
2023-03-12T01:31:07.385Z,96
2023-03-12T01:36:07.649Z,96
2023-03-12T01:41:07.306Z,96
2023-03-12T01:46:07.657Z,96
2023-03-12T01:51:07.763Z,96
2023-03-12T01:56:08.179Z,96
2023-03-12T02:01:07.428Z,96
2023-03-12T02:06:07.105Z,96
2023-03-12T02:11:07.273Z,96
2023-03-12T02:16:07.452Z,96
2023-03-12T02:21:07.281Z,96
2023-03-12T02:26:07.487Z,96
2023-03-12T02:31:07.695Z,96
2023-03-12T02:36:07.352Z,96
2023-03-12T02:41:07.943Z,96
2023-03-12T02:46:08.216Z,96
2023-03-12T02:51:07.401Z,96
2023-03-12T02:56:07.727Z,96
2023-03-12T03:01:07.984Z,97
2023-03-12T03:06:07.353Z,97
2023-03-12T03:11:07.784Z,97
2023-03-12T03:16:07.499Z,97
2023-03-12T03:21:08.110Z,97
2023-03-12T03:26:07.117Z,97
2023-03-12T03:31:07.487Z,97
2023-03-12T03:36:07.269Z,97
2023-03-12T03:41:07.979Z,97
2023-03-12T03:46:07.696Z,97
2023-03-12T03:51:08.102Z,97
2023-03-12T03:56:07.535Z,97
2023-03-12T04:01:07.977Z,97
2023-03-12T04:06:07.698Z,97
2023-03-12T04:11:07.506Z,97
2023-03-12T04:16:07.901Z,97
2023-03-12T04:21:07.368Z,97
2023-03-12T04:26:07.964Z,97
2023-03-12T04:31:08.162Z,97
2023-03-12T04:36:07.308Z,97
2023-03-12T04:41:07.885Z,97
2023-03-12T04:46:07.690Z,97
2023-03-12T04:51:07.804Z,97
2023-03-12T04:56:08.239Z,97
2023-03-12T05:01:07.948Z,97
2023-03-12T05:06:08.001Z,97
2023-03-12T05:11:07.766Z,97
2023-03-12T05:16:07.823Z,97
2023-03-12T05:21:08.208Z,97
2023-03-12T05:26:07.509Z,97
2023-03-12T05:31:07.487Z,97
2023-03-12T05:36:07.587Z,97
2023-03-12T05:41:08.212Z,97
2023-03-12T05:46:07.340Z,97
2023-03-12T05:51:07.387Z,97
2023-03-12T05:56:07.638Z,97
2023-03-12T06:01:07.966Z,97
2023-03-12T06:06:08.034Z,97
2023-03-12T06:11:08.246Z,97
2023-03-12T06:16:08.283Z,97
2023-03-12T06:21:07.314Z,97
2023-03-12T06:26:07.277Z,97
2023-03-12T06:31:07.473Z,97
2023-03-12T06:36:07.898Z,97
2023-03-12T06:41:07.850Z,97
2023-03-12T06:46:08.100Z,97
2023-03-12T06:51:08.208Z,97
2023-03-12T06:56:08.281Z,97
2023-03-12T07:01:07.926Z,97
2023-03-12T07:06:08.027Z,97
2023-03-12T07:11:08.192Z,97
2023-03-12T07:16:07.519Z,97
2023-03-12T07:21:07.704Z,97
2023-03-12T07:26:07.789Z,97
2023-03-12T07:31:08.218Z,98
2023-03-12T07:36:07.826Z,98
2023-03-12T07:41:08.210Z,97
2023-03-12T07:46:08.258Z,97
2023-03-12T07:51:07.612Z,97
2023-03-12T07:56:07.827Z,97
2023-03-12T08:01:07.703Z,98
2023-03-12T08:06:08.133Z,98
2023-03-12T08:11:08.290Z,98
2023-03-12T08:16:09.434Z,98
2023-03-12T08:21:08.314Z,98
2023-03-12T08:26:07.461Z,98
2023-03-12T08:31:07.972Z,98
2023-03-12T08:36:07.504Z,98
2023-03-12T08:41:07.616Z,98
2023-03-12T08:46:07.854Z,98
2023-03-12T08:51:07.630Z,97
2023-03-12T08:56:07.903Z,97
2023-03-12T09:01:08.170Z,97
2023-03-12T09:06:56.993Z,97
2023-03-12T09:11:08.244Z,97
2023-03-12T09:16:08.097Z,97
2023-03-12T09:21:07.557Z,96
2023-03-12T09:26:07.599Z,96
2023-03-12T09:31:08.333Z,95
2023-03-12T09:36:08.532Z,95
2023-03-12T09:41:08.177Z,94
2023-03-12T09:46:07.510Z,94
2023-03-12T09:51:07.740Z,92
2023-03-12T09:56:07.858Z,92
2023-03-12T10:01:08.044Z,90
2023-03-12T10:06:07.899Z,90
2023-03-12T10:11:08.308Z,90
2023-03-12T10:16:08.434Z,90
2023-03-12T10:21:07.735Z,87
2023-03-12T10:26:07.807Z,87
2023-03-12T10:31:08.074Z,84
2023-03-12T10:36:08.283Z,84
2023-03-12T10:41:08.250Z,80
2023-03-12T10:46:07.991Z,80
2023-03-12T10:51:07.561Z,78
2023-03-12T10:56:08.387Z,78
2023-03-12T11:01:08.433Z,77
2023-03-12T11:06:07.782Z,77
2023-03-12T11:11:08.019Z,76
2023-03-12T11:16:08.115Z,76
2023-03-12T11:21:08.212Z,77
2023-03-12T11:26:08.186Z,77
2023-03-12T11:31:08.303Z,77
2023-03-12T11:36:08.426Z,77
2023-03-12T11:41:08.300Z,76
2023-03-12T11:46:08.235Z,76
2023-03-12T11:51:08.424Z,75
2023-03-12T11:56:08.285Z,75
2023-03-12T12:01:08.390Z,74
2023-03-12T12:06:07.528Z,74
2023-03-12T12:11:07.790Z,73
2023-03-12T12:16:08.154Z,73
2023-03-12T12:21:08.236Z,72
2023-03-12T12:26:08.295Z,72
2023-03-12T12:31:08.460Z,71
2023-03-12T12:36:08.220Z,71
2023-03-12T12:41:08.412Z,72
2023-03-12T12:46:07.834Z,72
2023-03-12T12:51:09.018Z,73
2023-03-12T12:56:07.606Z,73
2023-03-12T13:01:08.006Z,74
2023-03-12T13:06:08.295Z,74
2023-03-12T13:11:18.444Z,75
2023-03-12T13:16:08.382Z,75
2023-03-12T13:21:08.503Z,77
2023-03-12T13:26:07.753Z,77
2023-03-12T13:31:08.038Z,77
2023-03-12T13:36:08.232Z,77
2023-03-12T13:41:07.744Z,79
2023-03-12T13:46:07.790Z,79
2023-03-12T13:51:07.830Z,82
2023-03-12T13:56:08.223Z,82
2023-03-12T14:01:08.381Z,82
2023-03-12T14:06:08.455Z,82
2023-03-12T14:11:08.598Z,83
2023-03-12T14:16:07.749Z,83
2023-03-12T14:21:08.682Z,84
2023-03-12T14:26:07.638Z,84
2023-03-12T14:31:07.704Z,84
2023-03-12T14:36:07.959Z,84
2023-03-12T14:41:08.068Z,86
2023-03-12T14:46:08.143Z,86
2023-03-12T14:51:08.364Z,88
2023-03-12T14:56:07.779Z,88
2023-03-12T15:01:08.136Z,89
2023-03-12T15:06:07.601Z,89
2023-03-12T15:11:08.671Z,90
2023-03-12T15:16:07.778Z,90
2023-03-12T15:21:08.056Z,91
2023-03-12T15:26:08.219Z,91
2023-03-12T15:31:08.514Z,92
2023-03-12T15:36:08.224Z,92
2023-03-12T15:41:08.259Z,93
2023-03-12T15:46:08.024Z,93
2023-03-12T15:51:07.839Z,93
2023-03-12T15:56:08.075Z,93
2023-03-12T16:01:07.861Z,94
2023-03-12T16:06:08.064Z,94
2023-03-12T16:11:08.358Z,94
2023-03-12T16:16:07.822Z,94
2023-03-12T16:21:08.467Z,94
2023-03-12T16:26:07.651Z,94
2023-03-12T16:31:08.017Z,94
2023-03-12T16:36:08.406Z,94
2023-03-12T16:41:08.478Z,95
2023-03-12T16:46:08.687Z,95
2023-03-12T16:51:07.903Z,95
2023-03-12T16:56:08.360Z,95
2023-03-12T17:01:08.419Z,95
2023-03-12T17:06:07.916Z,95
2023-03-12T17:11:08.222Z,96
2023-03-12T17:16:08.699Z,96
2023-03-12T17:21:07.938Z,96
2023-03-12T17:26:08.169Z,96
2023-03-12T17:31:08.293Z,96
2023-03-12T17:36:08.335Z,96
2023-03-12T17:41:23.332Z,96
2023-03-12T17:46:07.890Z,96
2023-03-12T17:51:08.083Z,96
2023-03-12T17:56:08.273Z,96
2023-03-12T18:01:08.266Z,96
2023-03-12T18:06:08.265Z,96
2023-03-12T18:11:08.311Z,97
2023-03-12T18:16:08.329Z,97
2023-03-12T18:21:08.557Z,97
2023-03-12T18:26:08.622Z,97
2023-03-12T18:31:08.874Z,97
2023-03-12T18:36:08.227Z,97
2023-03-12T18:41:08.275Z,97
2023-03-12T18:46:08.291Z,97
2023-03-12T18:51:08.330Z,97
2023-03-12T18:56:08.443Z,97
2023-03-12T19:01:08.510Z,97
2023-03-12T19:06:08.603Z,97
2023-03-12T19:11:08.715Z,97
2023-03-12T19:16:07.888Z,97
2023-03-12T19:21:08.022Z,97
2023-03-12T19:26:08.182Z,97
2023-03-12T19:31:08.287Z,98
2023-03-12T19:36:08.339Z,98
2023-03-12T19:41:08.695Z,98
2023-03-12T19:46:08.234Z,98
2023-03-12T19:51:08.354Z,98
2023-03-12T19:56:08.326Z,98
2023-03-12T20:01:08.425Z,98
2023-03-12T20:06:08.414Z,98
2023-03-12T20:11:08.458Z,98
2023-03-12T20:16:08.473Z,98
2023-03-12T20:21:08.652Z,98
2023-03-12T20:26:08.651Z,98
2023-03-12T20:31:08.707Z,98
2023-03-12T20:36:07.923Z,98
2023-03-12T20:41:08.411Z,98
2023-03-12T20:46:07.867Z,98
2023-03-12T20:51:08.556Z,98
2023-03-12T20:56:08.760Z,98
2023-03-12T21:01:08.057Z,99
2023-03-12T21:06:08.675Z,99
2023-03-12T21:11:08.794Z,99
2023-03-12T21:16:08.428Z,99
2023-03-12T21:21:08.626Z,99
2023-03-12T21:26:09.685Z,99
2023-03-12T21:31:08.249Z,99
2023-03-12T21:36:08.838Z,99
2023-03-12T21:41:08.451Z,99
2023-03-12T21:46:07.918Z,99
2023-03-12T21:51:08.156Z,99
2023-03-12T21:56:08.190Z,99
2023-03-12T22:01:08.384Z,99
2023-03-12T22:06:08.244Z,99
2023-03-12T22:11:08.258Z,99
2023-03-12T22:16:08.716Z,99
2023-03-12T22:21:08.712Z,99
2023-03-12T22:26:08.749Z,99
2023-03-12T22:31:09.103Z,99
2023-03-12T22:36:08.604Z,99
2023-03-12T22:41:08.774Z,99
2023-03-12T22:46:08.914Z,99
2023-03-12T22:51:08.425Z,99
2023-03-12T22:56:08.599Z,99
2023-03-12T23:01:08.729Z,99
2023-03-12T23:06:08.403Z,99
2023-03-12T23:11:08.646Z,99
2023-03-12T23:16:08.495Z,99
2023-03-12T23:21:08.528Z,99
2023-03-12T23:26:07.929Z,99
2023-03-12T23:31:08.100Z,99
2023-03-12T23:36:08.699Z,99
2023-03-12T23:41:08.551Z,99
2023-03-12T23:46:08.815Z,99
2023-03-12T23:51:09.147Z,99
2023-03-12T23:56:08.244Z,99
